^^
Saratoga-Weather Station Historical Data
Daily Summary for June 11, 2021 Units:  Metric    English   Both
Daily Weekly Monthly Yearly Custom
  High: Low: Average:
Temperature: 28.2 °C 15.9 °C 22.4 °C
Dew Point: 16.9 °C 13.8 °C 15.1 °C
Humidity: 88% 46% 65%
Wind Speed: 14.5km/h 0km/h 2.7km/h
Wind Gust: 17.7km/h - -
Wind- - SW
Pressure: 1018.6 hPa 1016.9 hPa -
Precipitation: 0.0 mm    
Historical Graphs
 
 
Tabular Data for June 11, 2021
Time Temperature Dew Point Pressure Wind Wind Speed Wind Gust Humidity Rainfall Rate (Hourly) solar
00:01 20.5 °C 14.6 °C 1018.3 hPa WSW 3.2 km/h 4.8 km/h 69% 0.0 mm 0 W/m2
00:06 20.6 °C 14.7 °C 1018.3 hPa WSW 1.4 km/h 3.2 km/h 69% 0.0 mm 0 W/m2
00:11 20.6 °C 14.7 °C 1018.3 hPa WSW 3.2 km/h 3.2 km/h 69% 0.0 mm 0 W/m2
00:16 20.6 °C 14.7 °C 1018.3 hPa WSW 4.7 km/h 6.4 km/h 69% 0.0 mm 0 W/m2
00:21 20.5 °C 14.6 °C 1018.3 hPa WSW 3.2 km/h 4.8 km/h 69% 0.0 mm 0 W/m2
00:27 20.4 °C 14.7 °C 1018.3 hPa SW 1.4 km/h 6.4 km/h 70% 0.0 mm 0 W/m2
00:32 20.4 °C 14.7 °C 1018.3 hPa WSW 1.4 km/h 4.8 km/h 70% 0.0 mm 0 W/m2
00:37 20.3 °C 14.6 °C 1018.3 hPa WSW 3.2 km/h 4.8 km/h 70% 0.0 mm 0 W/m2
00:42 20.3 °C 14.6 °C 1018.0 hPa WSW 3.2 km/h 6.4 km/h 70% 0.0 mm 0 W/m2
00:47 20.2 °C 14.8 °C 1018.0 hPa WSW 3.2 km/h 3.2 km/h 71% 0.0 mm 0 W/m2
00:52 20.1 °C 14.7 °C 1018.0 hPa WSW 1.4 km/h 6.4 km/h 71% 0.0 mm 0 W/m2
00:57 20.1 °C 14.5 °C 1018.0 hPa SW 3.2 km/h 4.8 km/h 70% 0.0 mm 0 W/m2
01:02 20.1 °C 14.5 °C 1018.0 hPa WSW 3.2 km/h 6.4 km/h 70% 0.0 mm 0 W/m2
01:07 20.1 °C 14.5 °C 1018.0 hPa WSW 1.4 km/h 3.2 km/h 70% 0.0 mm 0 W/m2
01:12 20.2 °C 14.6 °C 1018.0 hPa Calm   6.4 km/h 70% 0.0 mm 0 W/m2
01:17 20.1 °C 14.5 °C 1018.0 hPa SE 3.2 km/h 4.8 km/h 70% 0.0 mm 0 W/m2
01:22 19.8 °C 14.8 °C 1018.0 hPa SE 1.4 km/h 4.8 km/h 73% 0.0 mm 0 W/m2
01:27 19.6 °C 14.6 °C 1018.0 hPa Calm     73% 0.0 mm 0 W/m2
01:32 19.3 °C 14.5 °C 1018.0 hPa Calm     74% 0.0 mm 0 W/m2
01:37 19.1 °C 14.8 °C 1018.3 hPa Calm     76% 0.0 mm 0 W/m2
01:42 18.8 °C 14.5 °C 1018.3 hPa Calm     76% 0.0 mm 0 W/m2
01:47 18.6 °C 14.5 °C 1018.0 hPa Calm     77% 0.0 mm 0 W/m2
01:52 18.4 °C 14.5 °C 1018.0 hPa Calm     78% 0.0 mm 0 W/m2
01:57 18.3 °C 14.4 °C 1018.0 hPa Calm     78% 0.0 mm 0 W/m2
02:02 18.1 °C 14.4 °C 1018.0 hPa Calm     79% 0.0 mm 0 W/m2
02:07 17.9 °C 14.2 °C 1018.0 hPa Calm     79% 0.0 mm 0 W/m2
02:12 17.8 °C 14.3 °C 1018.0 hPa Calm     80% 0.0 mm 0 W/m2
02:17 17.7 °C 14.4 °C 1018.0 hPa Calm     81% 0.0 mm 0 W/m2
02:22 17.6 °C 14.3 °C 1018.0 hPa Calm     81% 0.0 mm 0 W/m2
02:27 17.5 °C 14.4 °C 1018.0 hPa Calm     82% 0.0 mm 0 W/m2
02:32 17.4 °C 14.3 °C 1018.0 hPa Calm     82% 0.0 mm 0 W/m2
02:37 17.3 °C 14.2 °C 1018.0 hPa Calm     82% 0.0 mm 0 W/m2
02:42 17.2 °C 14.3 °C 1018.0 hPa Calm     83% 0.0 mm 0 W/m2
02:47 17.1 °C 14.2 °C 1018.3 hPa Calm     83% 0.0 mm 0 W/m2
02:52 17 °C 14.1 °C 1018.3 hPa Calm     83% 0.0 mm 0 W/m2
02:57 16.9 °C 14.2 °C 1018.3 hPa Calm     84% 0.0 mm 0 W/m2
03:02 16.8 °C 14.1 °C 1018.3 hPa Calm     84% 0.0 mm 0 W/m2
03:07 16.7 °C 14.2 °C 1018.0 hPa Calm     85% 0.0 mm 0 W/m2
03:12 16.7 °C 14.2 °C 1018.0 hPa Calm     85% 0.0 mm 0 W/m2
03:17 16.6 °C 14.1 °C 1018.3 hPa Calm     85% 0.0 mm 0 W/m2
03:22 16.6 °C 14.1 °C 1018.3 hPa Calm     85% 0.0 mm 0 W/m2
03:27 16.6 °C 14.1 °C 1018.0 hPa Calm     85% 0.0 mm 0 W/m2
03:32 16.5 °C 14 °C 1018.0 hPa Calm     85% 0.0 mm 0 W/m2
03:37 16.5 °C 14.1 °C 1018.3 hPa Calm     86% 0.0 mm 0 W/m2
03:42 16.4 °C 14.1 °C 1018.3 hPa Calm     86% 0.0 mm 0 W/m2
03:47 16.4 °C 14.1 °C 1018.3 hPa Calm     86% 0.0 mm 0 W/m2
03:52 16.4 °C 14.1 °C 1018.3 hPa Calm     86% 0.0 mm 0 W/m2
03:57 16.3 °C 14 °C 1018.3 hPa Calm     86% 0.0 mm 0 W/m2
04:02 16.2 °C 14 °C 1018.3 hPa Calm     87% 0.0 mm 0 W/m2
04:07 16.2 °C 14 °C 1018.3 hPa Calm     87% 0.0 mm 0 W/m2
04:12 16.2 °C 14 °C 1018.3 hPa Calm     87% 0.0 mm 0 W/m2
04:17 16.1 °C 13.9 °C 1018.0 hPa Calm     87% 0.0 mm 0 W/m2
04:22 16.1 °C 13.9 °C 1018.0 hPa Calm     87% 0.0 mm 0 W/m2
04:27 16 °C 14 °C 1018.0 hPa Calm     88% 0.0 mm 0 W/m2
04:32 16 °C 14 °C 1018.0 hPa Calm     88% 0.0 mm 0 W/m2
04:37 16 °C 13.8 °C 1018.0 hPa Calm     87% 0.0 mm 0 W/m2
04:42 16 °C 13.8 °C 1018.0 hPa Calm     87% 0.0 mm 0 W/m2
04:47 15.9 °C 13.9 °C 1018.0 hPa Calm     88% 0.0 mm 0 W/m2
04:52 15.9 °C 13.9 °C 1018.0 hPa Calm     88% 0.0 mm 0 W/m2
04:57 16 °C 14 °C 1018.0 hPa Calm     88% 0.0 mm 0 W/m2
05:02 16 °C 14 °C 1018.0 hPa Calm     88% 0.0 mm 0 W/m2
05:07 16.1 °C 14.1 °C 1018.0 hPa Calm   1.6 km/h 88% 0.0 mm 0 W/m2
05:12 16.1 °C 14.1 °C 1018.0 hPa South 1.4 km/h 3.2 km/h 88% 0.0 mm 0 W/m2
05:17 16.2 °C 14 °C 1018.0 hPa Calm   1.6 km/h 87% 0.0 mm 0 W/m2
05:22 16.2 °C 14 °C 1018.3 hPa Calm   3.2 km/h 87% 0.0 mm 0 W/m2
05:28 16.2 °C 14 °C 1018.0 hPa WSW 1.4 km/h 3.2 km/h 87% 0.0 mm 0 W/m2
05:33 16.2 °C 14 °C 1018.0 hPa Calm   4.8 km/h 87% 0.0 mm 5 W/m2
05:38 16.2 °C 14 °C 1018.0 hPa WSW 3.2 km/h 4.8 km/h 87% 0.0 mm 5 W/m2
05:43 16.2 °C 14 °C 1018.3 hPa WNW 1.4 km/h 3.2 km/h 87% 0.0 mm 9 W/m2
05:48 16.2 °C 13.9 °C 1018.3 hPa WNW 3.2 km/h 3.2 km/h 86% 0.0 mm 11 W/m2
05:53 16.2 °C 13.9 °C 1018.3 hPa West 1.4 km/h 3.2 km/h 86% 0.0 mm 12 W/m2
05:58 16.3 °C 14 °C 1018.3 hPa Calm   3.2 km/h 86% 0.0 mm 16 W/m2
06:03 16.3 °C 14 °C 1018.3 hPa Calm     86% 0.0 mm 18 W/m2
06:08 16.3 °C 14 °C 1018.3 hPa Calm   3.2 km/h 86% 0.0 mm 21 W/m2
06:13 16.2 °C 13.9 °C 1018.3 hPa Calm     86% 0.0 mm 25 W/m2
06:18 16.2 °C 13.9 °C 1018.3 hPa Calm   1.6 km/h 86% 0.0 mm 26 W/m2
06:23 16.2 °C 14 °C 1018.3 hPa Calm     87% 0.0 mm 28 W/m2
06:28 16.2 °C 14 °C 1018.3 hPa Calm     87% 0.0 mm 30 W/m2
06:33 16.2 °C 14 °C 1018.3 hPa Calm     87% 0.0 mm 32 W/m2
06:38 16.2 °C 14 °C 1018.3 hPa Calm     87% 0.0 mm 33 W/m2
06:43 16.2 °C 14 °C 1018.3 hPa Calm     87% 0.0 mm 35 W/m2
06:48 16.4 °C 14.4 °C 1018.3 hPa Calm     88% 0.0 mm 37 W/m2
06:53 16.4 °C 14.2 °C 1018.3 hPa Calm     87% 0.0 mm 39 W/m2
06:58 16.6 °C 14.4 °C 1018.3 hPa Calm     87% 0.0 mm 40 W/m2
07:03 16.7 °C 14.5 °C 1018.3 hPa Calm     87% 0.0 mm 42 W/m2
07:08 16.8 °C 14.4 °C 1018.3 hPa Calm   1.6 km/h 86% 0.0 mm 42 W/m2
07:13 17.1 °C 14.6 °C 1018.3 hPa Calm   1.6 km/h 85% 0.0 mm 44 W/m2
07:18 17.3 °C 14.8 °C 1018.6 hPa Calm   1.6 km/h 85% 0.0 mm 44 W/m2
07:23 17.4 °C 14.7 °C 1018.6 hPa Calm     84% 0.0 mm 46 W/m2
07:28 17.7 °C 14.6 °C 1018.3 hPa Calm   1.6 km/h 82% 0.0 mm 47 W/m2
07:33 17.9 °C 14.8 °C 1018.3 hPa Calm   1.6 km/h 82% 0.0 mm 49 W/m2
07:38 18.2 °C 14.7 °C 1018.3 hPa Calm     80% 0.0 mm 84 W/m2
07:43 18.4 °C 14.7 °C 1018.3 hPa Calm     79% 0.0 mm 211 W/m2
07:48 18.7 °C 14.8 °C 1018.6 hPa Calm     78% 0.0 mm 234 W/m2
07:53 19.1 °C 15 °C 1018.3 hPa Calm   1.6 km/h 77% 0.0 mm 244 W/m2
07:58 19.7 °C 15.1 °C 1018.3 hPa Calm     75% 0.0 mm 262 W/m2
08:03 20.4 °C 15.2 °C 1018.3 hPa Calm     72% 0.0 mm 265 W/m2
08:08 20.8 °C 15.1 °C 1018.3 hPa Calm     70% 0.0 mm 197 W/m2
08:13 21.2 °C 15.3 °C 1018.3 hPa Calm     69% 0.0 mm 98 W/m2
08:18 21.4 °C 15.2 °C 1018.3 hPa Calm   1.6 km/h 68% 0.0 mm 60 W/m2
08:23 21.4 °C 15.2 °C 1018.3 hPa Calm     68% 0.0 mm 60 W/m2
08:28 21.9 °C 15.5 °C 1018.3 hPa Calm   1.6 km/h 67% 0.0 mm 60 W/m2
08:33 22.4 °C 15.5 °C 1018.3 hPa NE 1.4 km/h 3.2 km/h 65% 0.0 mm 58 W/m2
08:38 22.4 °C 15.3 °C 1018.3 hPa Calm   3.2 km/h 64% 0.0 mm 56 W/m2
08:43 22.3 °C 15.6 °C 1018.3 hPa Calm   1.6 km/h 66% 0.0 mm 56 W/m2
08:48 22.7 °C 15.5 °C 1018.3 hPa ENE 3.2 km/h 3.2 km/h 64% 0.0 mm 56 W/m2
08:53 22.9 °C 15.5 °C 1018.6 hPa ESE 1.4 km/h 4.8 km/h 63% 0.0 mm 58 W/m2
08:58 22.9 °C 15.7 °C 1018.3 hPa East 3.2 km/h 3.2 km/h 64% 0.0 mm 60 W/m2
09:03 22.9 °C 15.7 °C 1018.6 hPa East 1.4 km/h 3.2 km/h 64% 0.0 mm 63 W/m2
09:08 22.9 °C 15.5 °C 1018.6 hPa NE 6.4 km/h 6.4 km/h 63% 0.0 mm 142 W/m2
09:13 22.9 °C 15.2 °C 1018.6 hPa NE 1.4 km/h 3.2 km/h 62% 0.0 mm 295 W/m2
09:18 22.9 °C 15.5 °C 1018.3 hPa SE 4.7 km/h 4.8 km/h 63% 0.0 mm 468 W/m2
09:23 22.9 °C 15.2 °C 1018.3 hPa Calm   3.2 km/h 62% 0.0 mm 492 W/m2
09:28 22.9 °C 15.5 °C 1018.6 hPa Calm   3.2 km/h 63% 0.0 mm 506 W/m2
09:33 23.1 °C 16.2 °C 1018.6 hPa Calm   3.2 km/h 65% 0.0 mm 520 W/m2
09:38 23.3 °C 15.6 °C 1018.3 hPa ENE 1.4 km/h 1.6 km/h 62% 0.0 mm 534 W/m2
09:43 23.3 °C 15.9 °C 1018.3 hPa ESE 3.2 km/h 3.2 km/h 63% 0.0 mm 545 W/m2
09:48 23.6 °C 15.6 °C 1018.3 hPa SE 1.4 km/h 6.4 km/h 61% 0.0 mm 563 W/m2
09:53 23.6 °C 15.9 °C 1018.3 hPa Calm   3.2 km/h 62% 0.0 mm 568 W/m2
09:58 23.8 °C 15.3 °C 1018.3 hPa Calm   4.8 km/h 59% 0.0 mm 582 W/m2
10:03 23.9 °C 15.4 °C 1018.3 hPa NNE 3.2 km/h 4.8 km/h 59% 0.0 mm 578 W/m2
10:08 24.1 °C 15.3 °C 1018.3 hPa Calm   3.2 km/h 58% 0.0 mm 86 W/m2
10:13 24.3 °C 15 °C 1018.3 hPa ESE 4.7 km/h 6.4 km/h 56% 0.0 mm 107 W/m2
10:18 24.4 °C 15.6 °C 1018.3 hPa NE 1.4 km/h 4.8 km/h 58% 0.0 mm 613 W/m2
10:23 24.6 °C 15.2 °C 1018.6 hPa NW 3.2 km/h 4.8 km/h 56% 0.0 mm 635 W/m2
10:28 24.5 °C 15.4 °C 1018.6 hPa NW 3.2 km/h 3.2 km/h 57% 0.0 mm 645 W/m2
10:33 24.6 °C 14.7 °C 1018.3 hPa ENE 4.7 km/h 4.8 km/h 54% 0.0 mm 654 W/m2
10:38 24.8 °C 14.6 °C 1018.3 hPa Calm   3.2 km/h 53% 0.0 mm 680 W/m2
10:43 25.1 °C 14.6 °C 1018.6 hPa ENE 3.2 km/h 8 km/h 52% 0.0 mm 687 W/m2
10:48 25.1 °C 15.1 °C 1018.6 hPa ESE 3.2 km/h 6.4 km/h 54% 0.0 mm 700 W/m2
10:53 25.3 °C 14.4 °C 1018.3 hPa SE 3.2 km/h 4.8 km/h 51% 0.0 mm 712 W/m2
10:58 25.5 °C 15.2 °C 1018.6 hPa ENE 4.7 km/h 4.8 km/h 53% 0.0 mm 724 W/m2
11:03 25.5 °C 14.9 °C 1018.3 hPa ENE 1.4 km/h 4.8 km/h 52% 0.0 mm 735 W/m2
11:08 25.6 °C 15.6 °C 1018.3 hPa East 4.7 km/h 9.7 km/h 54% 0.0 mm 744 W/m2
11:13 25.7 °C 14.8 °C 1018.3 hPa ESE 4.7 km/h 4.8 km/h 51% 0.0 mm 749 W/m2
11:18 25.9 °C 15.6 °C 1018.3 hPa ENE 3.2 km/h 3.2 km/h 53% 0.0 mm 758 W/m2
11:23 26.2 °C 15.3 °C 1018.3 hPa NE 1.4 km/h 3.2 km/h 51% 0.0 mm 772 W/m2
11:28 26.2 °C 15.3 °C 1018.3 hPa Calm   3.2 km/h 51% 0.0 mm 773 W/m2
11:33 26.1 °C 15.2 °C 1018.3 hPa Calm   3.2 km/h 51% 0.0 mm 766 W/m2
11:38 26.3 °C 15 °C 1018.3 hPa ESE 6.4 km/h 9.7 km/h 50% 0.0 mm 773 W/m2
11:43 26.4 °C 15.1 °C 1018.3 hPa WNW 4.7 km/h 6.4 km/h 50% 0.0 mm 740 W/m2
11:48 26.3 °C 14.7 °C 1018.3 hPa WNW 6.4 km/h 6.4 km/h 49% 0.0 mm 798 W/m2
11:53 26.1 °C 13.9 °C 1018.3 hPa NW 1.4 km/h 3.2 km/h 47% 0.0 mm 823 W/m2
11:58 26.2 °C 15 °C 1018.3 hPa NNW 4.7 km/h 6.4 km/h 50% 0.0 mm 844 W/m2
12:03 26.1 °C 14.2 °C 1018.3 hPa NW 1.4 km/h 3.2 km/h 48% 0.0 mm 844 W/m2
12:08 26.2 °C 14.6 °C 1018.3 hPa WSW 4.7 km/h 6.4 km/h 49% 0.0 mm 854 W/m2
12:13 26.3 °C 14.7 °C 1018.3 hPa WSW 1.4 km/h 12.9 km/h 49% 0.0 mm 851 W/m2
12:18 26.3 °C 14.4 °C 1018.3 hPa West 9.7 km/h 11.3 km/h 48% 0.0 mm 846 W/m2
12:23 26.2 °C 15 °C 1018.3 hPa Calm   4.8 km/h 50% 0.0 mm 867 W/m2
12:28 26.3 °C 14.4 °C 1018.3 hPa ESE 1.4 km/h 11.3 km/h 48% 0.0 mm 891 W/m2
12:33 26.5 °C 14.9 °C 1018.3 hPa West 4.7 km/h 8 km/h 49% 0.0 mm 900 W/m2
12:38 26.7 °C 15.1 °C 1018.3 hPa NNW 4.7 km/h 8 km/h 49% 0.0 mm 930 W/m2
12:43 26.8 °C 14.5 °C 1018.3 hPa WNW 3.2 km/h 11.3 km/h 47% 0.0 mm 932 W/m2
12:48 26.8 °C 14.5 °C 1018.3 hPa WSW 1.4 km/h 3.2 km/h 47% 0.0 mm 912 W/m2
12:53 27.1 °C 15.8 °C 1018.3 hPa NW 3.2 km/h 11.3 km/h 50% 0.0 mm 888 W/m2
12:58 27 °C 14.4 °C 1018.3 hPa NE 3.2 km/h 4.8 km/h 46% 0.0 mm 925 W/m2
13:03 27 °C 15.4 °C 1018.3 hPa WSW 4.7 km/h 8 km/h 49% 0.0 mm 891 W/m2
13:08 26.7 °C 15.7 °C 1018.3 hPa WSW 6.4 km/h 12.9 km/h 51% 0.0 mm 962 W/m2
13:13 26.6 °C 15.9 °C 1018.3 hPa WNW 3.2 km/h 8 km/h 52% 0.0 mm 977 W/m2
13:18 26.7 °C 14.8 °C 1018.3 hPa NW 7.9 km/h 16.1 km/h 48% 0.0 mm 970 W/m2
13:23 26.6 °C 15.3 °C 1018.0 hPa WSW 1.4 km/h 11.3 km/h 50% 0.0 mm 976 W/m2
13:28 26.8 °C 15.2 °C 1018.0 hPa NW 1.4 km/h 6.4 km/h 49% 0.0 mm 997 W/m2
13:33 27 °C 15.7 °C 1018.0 hPa WNW 6.4 km/h 12.9 km/h 50% 0.0 mm 1000 W/m2
13:38 26.9 °C 15.3 °C 1018.0 hPa NNW 1.4 km/h 11.3 km/h 49% 0.0 mm 1013 W/m2
13:43 27 °C 15.4 °C 1018.0 hPa Calm   6.4 km/h 49% 0.0 mm 986 W/m2
13:48 27.2 °C 16.5 °C 1018.0 hPa North 3.2 km/h 6.4 km/h 52% 0.0 mm 949 W/m2
13:53 27.2 °C 15.2 °C 1018.0 hPa NNW 3.2 km/h 11.3 km/h 48% 0.0 mm 220 W/m2
13:58 26.8 °C 15.2 °C 1018.0 hPa East 3.2 km/h 6.4 km/h 49% 0.0 mm 309 W/m2
14:03 26.9 °C 16.5 °C 1018.0 hPa NW 14.5 km/h 14.5 km/h 53% 0.0 mm 1074 W/m2
14:08 27.3 °C 16.3 °C 1018.0 hPa WNW 4.7 km/h 9.7 km/h 51% 0.0 mm 998 W/m2
14:13 27.3 °C 16.3 °C 1018.0 hPa West 11.1 km/h 11.3 km/h 51% 0.0 mm 1042 W/m2
14:18 27.3 °C 16.6 °C 1018.0 hPa WSW 1.4 km/h 11.3 km/h 52% 0.0 mm 977 W/m2
14:23 27.3 °C 16 °C 1018.0 hPa SW 11.1 km/h 16.1 km/h 50% 0.0 mm 979 W/m2
14:28 27.3 °C 16.6 °C 1017.6 hPa SW 4.7 km/h 6.4 km/h 52% 0.0 mm 963 W/m2
14:33 27.2 °C 16.5 °C 1017.6 hPa NW 4.7 km/h 16.1 km/h 52% 0.0 mm 981 W/m2
14:38 27.1 °C 16.7 °C 1017.6 hPa WNW 4.7 km/h 12.9 km/h 53% 0.0 mm 1007 W/m2
14:43 27.3 °C 16 °C 1017.6 hPa NW 6.4 km/h 6.4 km/h 50% 0.0 mm 958 W/m2
14:48 27.5 °C 15.8 °C 1017.6 hPa NNW 4.7 km/h 6.4 km/h 49% 0.0 mm 991 W/m2
14:53 27.7 °C 16.6 °C 1017.6 hPa WNW 1.4 km/h 4.8 km/h 51% 0.0 mm 984 W/m2
14:58 27.8 °C 15.8 °C 1017.6 hPa Calm   17.7 km/h 48% 0.0 mm 1055 W/m2
15:03 27.8 °C 16.4 °C 1017.6 hPa WSW 7.9 km/h 11.3 km/h 50% 0.0 mm 960 W/m2
15:08 27.8 °C 15.8 °C 1017.6 hPa West 9.7 km/h 17.7 km/h 48% 0.0 mm 954 W/m2
15:13 27.8 °C 16.1 °C 1017.6 hPa West 9.7 km/h 16.1 km/h 49% 0.0 mm 954 W/m2
15:18 27.7 °C 15.7 °C 1017.6 hPa WSW 4.7 km/h 11.3 km/h 48% 0.0 mm 970 W/m2
15:23 27.6 °C 16.2 °C 1017.6 hPa NW 11.1 km/h 11.3 km/h 50% 0.0 mm 976 W/m2
15:28 27.8 °C 16.4 °C 1017.6 hPa West 6.4 km/h 16.1 km/h 50% 0.0 mm 949 W/m2
15:33 27.9 °C 16.2 °C 1017.6 hPa WNW 4.7 km/h 16.1 km/h 49% 0.0 mm 918 W/m2
15:38 28 °C 16.3 °C 1017.6 hPa WSW 7.9 km/h 12.9 km/h 49% 0.0 mm 895 W/m2
15:43 28.1 °C 16.4 °C 1017.6 hPa WNW 3.2 km/h 8 km/h 49% 0.0 mm 186 W/m2
15:48 27.9 °C 15.5 °C 1017.6 hPa NNE 4.7 km/h 9.7 km/h 47% 0.0 mm 195 W/m2
15:53 27.7 °C 15.7 °C 1017.6 hPa WNW 6.4 km/h 14.5 km/h 48% 0.0 mm 874 W/m2
15:58 27.6 °C 16.2 °C 1017.6 hPa WSW 11.1 km/h 17.7 km/h 50% 0.0 mm 858 W/m2
16:03 27.6 °C 15.9 °C 1017.3 hPa WNW 6.4 km/h 9.7 km/h 49% 0.0 mm 835 W/m2
16:08 27.7 °C 16.3 °C 1017.3 hPa WSW 6.4 km/h 17.7 km/h 50% 0.0 mm 854 W/m2
16:13 27.7 °C 16.9 °C 1017.3 hPa WSW 6.4 km/h 9.7 km/h 52% 0.0 mm 821 W/m2
16:18 27.7 °C 16.3 °C 1017.3 hPa West 6.4 km/h 11.3 km/h 50% 0.0 mm 814 W/m2
16:23 27.9 °C 16.2 °C 1017.3 hPa WSW 4.7 km/h 9.7 km/h 49% 0.0 mm 798 W/m2
16:28 27.9 °C 16.2 °C 1017.3 hPa WSW 4.7 km/h 12.9 km/h 49% 0.0 mm 798 W/m2
16:34 27.8 °C 15.8 °C 1017.3 hPa WSW 4.7 km/h 12.9 km/h 48% 0.0 mm 139 W/m2
16:39 27.6 °C 16.6 °C 1017.3 hPa WNW 13 km/h 16.1 km/h 51% 0.0 mm 752 W/m2
16:44 27.8 °C 16.4 °C 1017.3 hPa WSW 9.7 km/h 11.3 km/h 50% 0.0 mm 795 W/m2
16:49 27.9 °C 16.8 °C 1017.3 hPa WSW 14.3 km/h 16.1 km/h 51% 0.0 mm 763 W/m2
16:54 27.8 °C 16.7 °C 1017.3 hPa WSW 3.2 km/h 11.3 km/h 51% 0.0 mm 715 W/m2
16:59 27.9 °C 16.5 °C 1016.9 hPa West 4.7 km/h 16.1 km/h 50% 0.0 mm 710 W/m2
17:04 28.1 °C 16.7 °C 1016.9 hPa West 11.1 km/h 14.5 km/h 50% 0.0 mm 673 W/m2
17:09 27.9 °C 16.8 °C 1016.9 hPa WSW 7.9 km/h 12.9 km/h 51% 0.0 mm 666 W/m2
17:14 27.8 °C 16.4 °C 1016.9 hPa West 9.7 km/h 12.9 km/h 50% 0.0 mm 633 W/m2
17:19 27.7 °C 16.6 °C 1016.9 hPa WSW 4.7 km/h 12.9 km/h 51% 0.0 mm 666 W/m2
17:24 27.8 °C 16.7 °C 1016.9 hPa North 4.7 km/h 16.1 km/h 51% 0.0 mm 643 W/m2
17:29 27.9 °C 16.5 °C 1016.9 hPa NNW 13 km/h 12.9 km/h 50% 0.0 mm 615 W/m2
17:34 27.9 °C 16.5 °C 1016.9 hPa NW 7.9 km/h 12.9 km/h 50% 0.0 mm 608 W/m2
17:39 27.9 °C 16.5 °C 1016.9 hPa West 6.4 km/h 9.7 km/h 50% 0.0 mm 527 W/m2
17:44 27.9 °C 16.5 °C 1016.9 hPa WNW 4.7 km/h 9.7 km/h 50% 0.0 mm 538 W/m2
17:49 28.1 °C 16.4 °C 1016.9 hPa NW 3.2 km/h 12.9 km/h 49% 0.0 mm 564 W/m2
17:54 28.1 °C 16.4 °C 1016.9 hPa NW 6.4 km/h 11.3 km/h 49% 0.0 mm 550 W/m2
17:59 28.2 °C 16.5 °C 1016.9 hPa WNW 6.4 km/h 9.7 km/h 49% 0.0 mm 534 W/m2
18:04 28.1 °C 16.1 °C 1016.9 hPa West 9.7 km/h 17.7 km/h 48% 0.0 mm 529 W/m2
18:09 27.8 °C 16.4 °C 1016.9 hPa West 4.7 km/h 9.7 km/h 50% 0.0 mm 506 W/m2
18:14 27.8 °C 16.4 °C 1016.9 hPa WSW 7.9 km/h 17.7 km/h 50% 0.0 mm 487 W/m2
18:19 27.8 °C 16.1 °C 1016.9 hPa SW 6.4 km/h 16.1 km/h 49% 0.0 mm 476 W/m2
18:24 27.7 °C 16 °C 1016.9 hPa West 6.4 km/h 6.4 km/h 49% 0.0 mm 446 W/m2
18:29 27.8 °C 16.1 °C 1016.9 hPa West 4.7 km/h 14.5 km/h 49% 0.0 mm 410 W/m2
18:34 27.9 °C 16.5 °C 1016.9 hPa West 1.4 km/h 9.7 km/h 50% 0.0 mm 374 W/m2
Juneau County Weather
Compliments of Weather Underground - 2 mb